South Palm Beach, Florida
Current Conditions -  °F | °C
As of 9:53 PM on Monday 20 Oct 2014 (Local Time) from KPBI Reporting Station
Scattered Clouds Scattered Clouds  
Wind Chill: 26°   Ceiling: Unl
Heat Index: 27°   Visibility: 10mi
Dew Point: 19°   Wind: 7mph
Humidity: 64%   Direction: 140°SE
Pressure: 29.97"   Gusts: NA
Location:  26.6941°N, 80.0379°W
Report Text: KPBI 210153Z 14006KT 10SM SCT070 SCT250 26/19 A2997 RMK AO2 SLP149 T02610189
Loading
Personal Weather Stations






























Interactive Weather Map
Tropical Storm Tracking
New forecast layout! Learn more

10-Day Weather Forecast

Advertisements
Track Severe Weather on mobile